Latest Weather Observations for Launceston Airport

IDT60801

Issued at 11:31 am EDT Friday 15 November 2019 (issued every 10 minutes, with the page automatically refreshed every 10 minutes)

About weather observations | Map of weather stations | Latest weather observations for TAS | Other Formats
Station Details ID: 091311 Name: LAUNCESTON AIRPORT Lat: -41.55 Lon: 147.22 Height: 166.9 m
Data from the previous 72 hours. | See also: Recent months at Launceston Airport
Date/Time
EDT
Temp
°C
App
Temp
°C
Dew
Point
°C
Rel
Hum
%
Delta-T
°C
Wind Press
QNH
hPa
Press
MSL
hPa
Rain since
9am
mm
Dir  Spd
km/h
Gust
km/h
Spd
kts
Gust
kts
15/11:30am 15.2 7.6 0.6 37 6.4 WNW 30 46 16 25 1000.9 1000.7 0.0
15/11:04am 15.1 6.8 -0.6 34 6.6 WNW 33 52 18 28 1001.0 1000.8 0.0
15/11:00am 15.0 6.8 0.1 36 6.4 WNW 33 46 18 25 1001.1 1000.9 0.0
15/10:31am 14.8 6.4 -0.9 34 6.5 WNW 33 52 18 28 1001.0 1000.8 0.0
15/10:30am 15.1 7.2 0.9 38 6.2 WNW 32 43 17 23 1001.1 1000.9 0.0
15/10:00am 14.2 5.0 -1.4 34 6.4 NW 37 46 20 25 1001.3 1001.1 0.0
15/09:30am 14.0 5.8 0.6 40 5.7 WNW 33 44 18 24 1001.6 1001.4 0.0
15/09:00am 13.5 3.5 -1.3 36 6.1 NW 41 52 22 28 1001.3 1001.1 0.0
15/08:42am 13.1 4.5 0.2 41 5.4 WNW 35 54 19 29 1001.2 1001.0 0.0
15/08:30am 12.8 4.8 1.5 46 4.9 WNW 33 44 18 24 1001.2 1001.0 0.0
15/08:00am 12.5 6.0 4.7 59 3.6 NW 28 39 15 21 1001.1 1000.9 0.0
15/07:30am 11.1 5.0 6.5 73 2.2 NW 28 35 15 19 1001.0 1000.8 0.0
15/07:00am 9.9 4.8 6.1 77 1.8 NNW 22 33 12 18 1001.0 1000.8 0.0
15/06:30am 9.5 3.7 6.4 81 1.5 NNW 26 33 14 18 1000.7 1000.5 0.0
15/06:00am 9.1 3.0 6.4 83 1.3 NNW 28 39 15 21 1000.3 1000.1 0.0
15/05:30am 9.2 4.2 6.6 84 1.2 N 22 32 12 17 1000.2 1000.0 0.0
15/05:00am 9.6 3.9 6.7 82 1.4 N 26 32 14 17 1000.1 999.9 0.0
15/04:30am 9.5 4.2 6.8 83 1.3 NNW 24 32 13 17 1000.1 999.9 0.0
15/04:00am 9.5 4.6 6.9 84 1.2 NNW 22 30 12 16 1000.1 999.9 0.0
15/03:30am 9.4 4.1 6.7 83 1.3 NNW 24 30 13 16 999.8 999.6 0.0
15/03:00am 9.7 4.0 6.6 81 1.5 NNW 26 35 14 19 999.9 999.7 0.0
15/02:30am 9.8 3.6 6.2 78 1.7 NNW 28 35 15 19 1000.1 999.9 0.0
15/02:00am 10.1 3.6 6.4 78 1.8 NNW 30 37 16 20 1000.4 1000.2 0.0
15/01:30am 10.0 3.1 6.3 78 1.7 NNW 32 39 17 21 1000.4 1000.2 0.0
15/01:00am 10.1 4.3 6.4 78 1.8 NW 26 33 14 18 1000.6 1000.4 0.0
15/12:30am 10.5 3.6 6.5 76 1.9 NNW 32 39 17 21 1001.1 1000.9 0.0
15/12:00am 10.9 4.0 6.5 74 2.1 NNW 32 43 17 23 1001.1 1000.9 0.0
 
Date/Time
EDT
Temp
°C
App
Temp
°C
Dew
Point
°C
Rel
Hum
%
Delta-T
°C
Wind Press
QNH
hPa
Press
MSL
hPa
Rain since
9am
mm
Dir  Spd
km/h
Gust
km/h
Spd
kts
Gust
kts
14/11:30pm 10.7 3.2 6.5 75 2.0 NNW 35 44 19 24 1001.5 1001.3 0.0
14/11:00pm 10.8 1.8 6.4 74 2.1 NNW 43 54 23 29 1001.3 1001.1 0.0
14/10:30pm 10.8 2.1 6.2 73 2.2 NNW 41 50 22 27 1001.4 1001.2 0.0
14/10:00pm 10.9 3.4 6.1 72 2.3 NNW 35 44 19 24 1001.6 1001.4 0.0
14/09:30pm 11.1 3.8 5.4 68 2.6 NNW 33 46 18 25 1001.6 1001.4 0.0
14/09:17pm 11.4 4.6 5.1 65 2.9 NNW 30 48 16 26 1001.8 1001.6 0.0
14/09:00pm 11.9 4.1 4.9 62 3.3 NNW 35 50 19 27 1001.6 1001.4 0.0
14/08:43pm 12.5 3.6 5.0 60 3.5 NW 41 59 22 32 1001.5 1001.3 0.0
14/08:30pm 12.7 3.4 4.9 59 3.6 NW 43 57 23 31 1001.6 1001.4 0.0
14/08:00pm 12.9 3.9 4.8 58 3.8 NW 41 59 22 32 1001.6 1001.4 0.0
14/07:48pm 13.3 3.9 4.7 56 4.0 NW 43 61 23 33 1001.6 1001.4 0.0
14/07:30pm 14.0 4.4 4.6 53 4.4 NW 44 61 24 33 1001.5 1001.3 0.0
14/07:06pm 14.6 4.2 4.3 50 4.8 NW 48 69 26 37 1001.4 1001.2 0.0
14/07:00pm 14.7 4.0 4.4 50 4.8 WNW 50 65 27 35 1001.3 1001.1 0.0
14/06:37pm 15.3 4.6 4.4 48 5.1 WNW 50 69 27 37 1001.2 1001.0 0.0
14/06:30pm 15.4 4.2 4.2 47 5.2 NW 52 69 28 37 1001.1 1000.9 0.0
14/06:01pm 16.4 7.1 4.8 46 5.5 NW 43 67 23 36 1001.1 1000.9 0.0
14/06:00pm 16.6 7.3 4.9 46 5.6 NW 43 57 23 31 1001.2 1001.0 0.0
14/05:30pm 16.9 6.9 4.3 43 6.0 NW 46 67 25 36 1001.3 1001.1 0.0
14/05:16pm 16.7 7.5 3.7 42 6.1 NW 41 59 22 32 1001.7 1001.5 0.0
14/05:00pm 16.9 7.3 4.6 44 5.9 NW 44 61 24 33 1001.7 1001.5 0.0
14/04:30pm 17.9 8.2 3.8 39 6.7 NW 44 65 24 35 1001.8 1001.6 0.0
14/04:00pm 17.8 7.7 4.0 40 6.6 WNW 46 69 25 37 1001.7 1001.5 0.0
14/03:31pm 18.3 9.9 5.5 43 6.3 NW 39 57 21 31 1001.9 1001.7 0.0
14/03:30pm 17.9 8.9 4.8 42 6.3 NW 41 57 22 31 1001.9 1001.7 0.0
14/03:29pm 18.0 9.4 4.6 41 6.4 NW 39 57 21 31 1001.8 1001.6 0.0
14/03:00pm 18.4 10.6 4.9 41 6.6 NW 35 48 19 26 1002.0 1001.8 0.0
14/02:30pm 19.3 11.8 4.3 37 7.2 NW 33 52 18 28 1002.0 1001.8 0.0
14/02:29pm 20.2 12.7 4.7 36 7.6 NW 33 52 18 28 1002.0 1001.8 0.0
14/02:12pm 20.0 11.1 4.9 37 7.4 NW 41 52 22 28 1002.1 1001.9 0.0
14/02:09pm 19.2 10.6 6.3 43 6.5 NW 41 52 22 28 1002.2 1002.0 0.0
14/02:00pm 19.5 10.3 3.6 35 7.6 WNW 41 57 22 31 1002.1 1001.9 0.0
14/01:33pm 19.3 10.9 5.4 40 6.9 NW 39 57 21 31 1002.1 1001.9 0.0
14/01:30pm 19.6 10.8 5.6 40 6.9 NW 41 57 22 31 1001.9 1001.7 0.0
14/01:11pm 18.8 10.7 5.3 41 6.6 NW 37 57 20 31 1001.9 1001.7 0.0
14/01:08pm 18.5 10.4 5.4 42 6.4 NNW 37 50 20 27 1001.9 1001.7 0.0
14/01:06pm 19.3 11.4 8.0 48 5.9 NNW 39 57 21 31 1001.9 1001.7 0.0
14/01:00pm 19.1 10.3 8.1 49 5.7 NNW 44 57 24 31 1001.8 1001.6 0.0
14/12:30pm 17.2 8.6 8.9 58 4.3 NNW 44 59 24 32 1002.4 1002.2 0.0
14/12:00pm 16.0 7.7 9.9 67 3.2 NNW 44 57 24 31 1002.6 1002.4 0.0
14/11:43am 16.1 8.7 9.8 66 3.3 NNW 39 57 21 31 1002.9 1002.7 0.0
14/11:30am 15.6 8.1 9.5 67 3.2 NNW 39 50 21 27 1003.1 1003.0 0.0
14/11:00am 14.7 7.5 9.1 69 2.9 NNW 37 50 20 27 1003.4 1003.3 0.0
14/10:30am 15.5 8.4 9.6 68 3.1 NNW 37 50 20 27 1003.7 1003.6 0.0
14/10:00am 15.3 8.0 8.8 65 3.4 NNW 37 46 20 25 1003.8 1003.7 0.0
14/09:30am 14.8 7.1 8.7 67 3.1 NNW 39 48 21 26 1004.3 1004.2 0.0
14/09:04am 13.9 6.6 8.7 71 2.6 NNW 37 52 20 28 1004.6 1004.5 0.0
14/09:00am 14.1 6.6 9.5 74 2.4 NNW 39 46 21 25 1004.6 1004.5 0.0
14/08:30am 12.0 4.7 8.7 80 1.7 NNW 37 46 20 25 1004.5 1004.4 0.0
14/08:00am 11.6 5.0 8.6 82 1.5 NNW 33 46 18 25 1004.6 1004.5 0.0
14/07:30am 11.3 4.4 8.7 84 1.3 NNW 35 46 19 25 1004.4 1004.3 0.0
14/07:03am 10.9 3.9 8.5 85 1.2 NNW 35 48 19 26 1004.2 1004.1 0.0
14/07:00am 10.8 3.8 8.6 86 1.1 NNW 35 48 19 26 1004.2 1004.1 0.0
14/06:47am 10.5 3.5 8.3 86 1.1 NNW 35 48 19 26 1004.1 1004.0 0.0
14/06:30am 10.5 4.0 8.3 86 1.1 NNW 32 44 17 24 1004.3 1004.2 0.0
14/06:00am 10.3 3.7 7.9 85 1.2 NNW 32 43 17 23 1004.3 1004.2 0.0
14/05:30am 10.3 3.7 7.9 85 1.2 NNW 32 39 17 21 1004.4 1004.3 0.0
14/05:16am 10.1 4.2 7.7 85 1.2 NNW 28 35 15 19 1004.5 1004.4 0.0
14/05:00am 10.0 3.4 7.8 86 1.1 NNW 32 39 17 21 1004.7 1004.6 0.0
14/04:30am 9.5 3.6 7.3 86 1.1 NNW 28 35 15 19 1004.8 1004.7 0.0
14/04:00am 9.3 3.2 6.6 83 1.3 NNW 28 35 15 19 1005.2 1005.1 0.0
14/03:30am 8.9 3.3 5.5 79 1.6 NNW 24 32 13 17 1005.4 1005.3 0.0
14/03:00am 7.9 1.7 4.1 77 1.7 NNW 26 32 14 17 1006.0 1005.8 0.0
14/02:30am 8.1 2.1 3.2 71 2.1 NNW 24 28 13 15 1005.8 1005.6 0.0
14/02:00am 8.5 3.4 3.1 69 2.3 NNW 19 22 10 12 1006.4 1006.2 0.0
14/01:30am 8.2 2.8 2.7 68 2.3 N 20 24 11 13 1006.7 1006.5 0.0
14/01:00am 7.7 2.5 2.6 70 2.2 N 19 24 10 13 1006.7 1006.5 0.0
14/12:30am 6.6 1.3 1.7 71 2.0 NNW 19 22 10 12 1006.9 1006.7 0.0
14/12:00am 6.4 1.4 1.3 70 2.1 N 17 20 9 11 1006.9 1006.7 0.0
 
Date/Time
EDT
Temp
°C
App
Temp
°C
Dew
Point
°C
Rel
Hum
%
Delta-T
°C
Wind Press
QNH
hPa
Press
MSL
hPa
Rain since
9am
mm
Dir  Spd
km/h
Gust
km/h
Spd
kts
Gust
kts
13/11:30pm 7.9 2.6 1.7 65 2.6 NNW 19 22 10 12 1006.8 1006.6 0.0
13/11:00pm 8.8 3.7 1.0 58 3.2 WNW 17 20 9 11 1006.6 1006.4 0.0
13/10:30pm 9.0 5.1 1.2 58 3.2 WNW 11 15 6 8 1006.4 1006.2 0.0
13/10:00pm 9.0 3.6 1.4 59 3.2 NW 19 24 10 13 1006.0 1005.8 0.0
13/09:30pm 9.9 4.4 1.8 57 3.4 NNW 20 30 11 16 1005.8 1005.6 0.0
13/09:00pm 11.3 6.9 0.1 46 4.6 WNW 13 26 7 14 1005.5 1005.4 0.0
13/08:30pm 12.1 5.3 0.5 45 4.9 W 26 32 14 17 1004.6 1004.5 0.0
13/08:00pm 12.4 6.9 0.8 45 4.9 WNW 19 28 10 15 1004.7 1004.6 0.0
13/07:30pm 12.5 6.8 0.3 43 5.1 NW 20 30 11 16 1004.3 1004.2 0.0
13/07:00pm 14.1 8.4 0.7 40 5.8 WNW 20 33 11 18 1003.5 1003.4 0.0
13/06:30pm 14.8 8.1 -0.9 34 6.5 W 24 35 13 19 1002.9 1002.7 0.0
13/06:00pm 16.3 10.5 -0.4 32 7.2 W 20 30 11 16 1002.3 1002.1 0.0
13/05:30pm 16.6 7.8 -1.5 29 7.6 WSW 35 59 19 32 1001.8 1001.6 0.0
13/05:00pm 17.2 8.9 -1.4 28 7.9 W 32 50 17 27 1001.3 1001.1 0.0
13/04:31pm 16.8 7.2 -1.8 28 7.8 W 39 61 21 33 1000.9 1000.7 0.0
13/04:30pm 17.1 7.5 -1.5 28 7.8 W 39 56 21 30 1000.9 1000.7 0.0
13/04:00pm 17.6 7.6 0.7 32 7.5 WSW 43 63 23 34 1000.6 1000.4 0.0
13/03:30pm 17.9 8.3 1.0 32 7.5 W 41 61 22 33 1000.3 1000.1 0.0
13/03:13pm 17.7 10.2 4.6 42 6.3 W 33 52 18 28 1000.2 1000.0 0.0
13/03:00pm 17.4 8.5 3.3 39 6.6 W 39 56 21 30 999.9 999.7 0.0
13/02:30pm 17.6 8.9 3.9 40 6.5 W 39 59 21 32 999.5 999.3 0.0
13/02:00pm 17.6 8.7 4.9 43 6.2 WNW 41 69 22 37 999.2 999.1 0.0
13/01:53pm 18.1 9.2 6.9 48 5.6 WNW 43 57 23 31 999.3 999.2 0.0
13/01:52pm 18.0 8.8 6.2 46 5.9 WNW 44 57 24 31 999.3 999.2 0.0
13/01:40pm 17.9 8.8 5.8 45 6.0 WNW 43 61 23 33 999.1 999.0 0.0
13/01:30pm 17.6 8.8 5.5 45 5.9 WNW 41 65 22 35 999.3 999.2 0.0
13/01:25pm 18.1 11.2 6.3 46 5.9 NW 32 65 17 35 999.5 999.3 0.0
13/01:00pm 15.6 8.2 6.9 56 4.3 NNW 35 54 19 29 999.7 999.5 0.0
13/12:53pm 15.6 8.5 6.6 55 4.4 NW 33 54 18 29 999.9 999.7 0.0
13/12:48pm 14.8 7.9 7.1 60 3.8 NW 33 46 18 25 1000.1 999.9 0.0
13/12:45pm 14.7 7.2 6.5 58 4.0 NW 35 46 19 25 1000.1 999.9 0.0
13/12:30pm 12.7 5.3 6.7 67 2.9 NNW 35 46 19 25 1000.3 1000.1 0.0
13/12:00pm 12.4 4.1 6.2 66 3.0 NNW 39 50 21 27 1000.6 1000.4 0.0
13/11:30am 12.9 3.9 6.5 65 3.1 NNW 43 57 23 31 1001.1 1000.9 0.0
13/11:00am 12.2 3.3 5.1 62 3.3 NNW 41 54 22 29 1002.1 1001.9 0.0
13/10:30am 11.7 2.3 4.4 61 3.3 NNW 43 52 23 28 1002.4 1002.2 0.0
13/10:00am 10.6 2.1 3.2 60 3.3 NNW 37 54 20 29 1003.0 1002.8 0.0
13/09:58am 10.8 2.7 3.4 60 3.3 NNW 35 54 19 29 1003.0 1002.8 0.0
13/09:30am 11.4 2.4 2.4 54 3.9 NNW 39 52 21 28 1003.1 1003.0 0.0
13/09:00am 10.3 2.0 2.2 57 3.5 NW 35 50 19 27 1003.2 1003.1 0.0
13/08:55am 9.7 2.3 1.6 57 3.4 NW 30 50 16 27 1003.3 1003.2 0.0
13/08:30am 9.8 2.2 2.6 61 3.1 NNW 32 41 17 22 1003.6 1003.5 0.0
13/08:00am 8.5 0.8 2.3 65 2.6 NNW 32 39 17 21 1003.7 1003.6 0.0
13/07:30am 7.4 0.9 2.7 72 2.0 NNW 26 33 14 18 1004.0 1003.9 0.0
13/07:00am 5.6 -0.3 1.5 75 1.7 NNW 22 26 12 14 1003.9 1003.8 0.0
13/06:30am 5.6 -0.8 1.2 73 1.8 NNW 24 32 13 17 1004.0 1003.9 0.0
13/06:00am 4.4 -1.2 1.1 79 1.3 NNW 20 26 11 14 1003.8 1003.7 0.0
13/05:30am 4.8 -1.6 0.9 76 1.5 NNW 24 28 13 15 1003.5 1003.4 0.0
13/05:00am 4.4 -1.7 0.2 74 1.6 NW 22 28 12 15 1003.7 1003.6 0.0
13/04:30am 4.8 -0.9 0.8 75 1.6 NW 20 22 11 12 1003.6 1003.5 0.0
13/04:00am 3.7 -0.6 1.1 83 1.0 N 13 17 7 9 1003.8 1003.7 0.0
13/03:30am 5.7 0.2 0.5 69 2.0 WNW 19 24 10 13 1003.8 1003.7 0.0
13/03:00am 5.8 0.4 1.2 72 1.8 NW 19 30 10 16 1003.8 1003.7 0.0
13/02:30am 3.7 -1.3 1.1 83 1.0 NNW 17 19 9 10 1003.9 1003.8 0.0
13/02:00am 3.2 -2.0 0.1 80 1.2 N 17 20 9 11 1004.0 1003.9 0.0
13/01:30am 5.0 0.3 0.8 74 1.6 NW 15 19 8 10 1004.2 1004.1 0.0
13/01:00am 4.2 -1.4 0.9 79 1.3 NNW 20 24 11 13 1004.1 1004.0 0.0
13/12:30am 2.9 -2.6 0.5 84 0.9 NW 19 22 10 12 1004.0 1003.9 0.0
13/12:00am 2.3 -3.0 -0.4 82 1.0 NNW 17 19 9 10 1004.0 1003.9 0.0
 
Date/Time
EDT
Temp
°C
App
Temp
°C
Dew
Point
°C
Rel
Hum
%
Delta-T
°C
Wind Press
QNH
hPa
Press
MSL
hPa
Rain since
9am
mm
Dir  Spd
km/h
Gust
km/h
Spd
kts
Gust
kts
12/11:30pm 3.0 -1.9 -0.6 77 1.3 NNW 15 20 8 11 1003.9 1003.8 0.0
12/11:00pm 4.9 -1.0 -0.5 68 2.1 NW 20 26 11 14 1003.5 1003.4 0.0
12/10:30pm 6.0 -0.2 -0.1 65 2.4 NW 22 26 12 14 1003.4 1003.3 0.0
12/10:00pm 6.7 1.1 -0.3 61 2.7 NW 19 24 10 13 1003.2 1003.1 0.0
12/09:30pm 7.5 0.6 0.0 59 3.0 WNW 26 33 14 18 1002.6 1002.4 0.0
12/09:00pm 8.1 0.8 0.3 58 3.1 WNW 28 37 15 20 1002.2 1002.0 0.0
12/08:30pm 8.5 1.2 0.0 55 3.4 WNW 28 35 15 19 1001.8 1001.6 0.0
12/08:00pm 9.3 3.1 -0.3 51 3.9 WNW 22 32 12 17 1001.6 1001.4 0.0
12/07:30pm 10.4 3.0 -0.4 47 4.4 WNW 28 39 15 21 1000.8 1000.6 0.0
12/07:00pm 11.1 2.9 -1.3 42 5.0 W 32 44 17 24 1000.4 1000.2 0.0
12/06:30pm 11.6 3.2 -2.2 38 5.4 W 32 48 17 26 1000.1 999.9 0.0
12/06:00pm 12.8 4.1 -0.8 39 5.6 WNW 35 50 19 27 1000.0 999.8 0.0
12/05:50pm 13.4 5.1 -0.6 38 5.8 WNW 33 52 18 28 999.8 999.6 0.0
12/05:30pm 13.5 4.7 -0.9 37 5.9 WNW 35 46 19 25 999.3 999.2 0.0
12/05:00pm 14.1 5.8 -1.9 33 6.5 W 32 54 17 29 998.9 998.8 0.0
12/04:36pm 13.8 5.5 -1.8 34 6.3 W 32 50 17 27 999.0 998.9 0.0
12/04:30pm 13.9 4.7 -1.7 34 6.3 W 37 54 20 29 999.0 998.9 0.0
12/04:00pm 14.0 4.9 -0.8 36 6.2 W 37 52 20 28 998.8 998.7 0.0
12/03:50pm 14.6 5.4 1.2 40 5.8 WSW 39 57 21 31 998.8 998.7 0.0
12/03:30pm 14.6 6.2 1.5 41 5.7 W 35 46 19 25 998.8 998.7 0.0
12/03:10pm 15.4 7.3 0.0 35 6.6 W 32 50 17 27 998.9 998.8 0.0
12/03:00pm 14.8 6.2 0.3 37 6.3 W 35 48 19 26 998.9 998.8 0.0
12/02:34pm 14.7 5.6 1.6 41 5.8 W 39 57 21 31 998.9 998.8 0.0
12/02:30pm 14.1 4.4 0.7 40 5.7 W 41 57 22 31 998.9 998.8 0.0
12/02:15pm 14.5 6.8 0.0 37 6.1 WNW 30 48 16 26 998.8 998.7 0.0
12/02:00pm 14.1 6.0 0.7 40 5.8 W 33 50 18 27 998.9 998.8 0.0
12/01:30pm 14.9 6.4 0.7 38 6.1 WNW 35 48 19 26 998.7 998.6 0.0
12/01:05pm 14.1 4.9 -1.1 35 6.3 WNW 37 56 20 30 998.5 998.4 0.0
12/01:00pm 15.3 7.0 -0.4 34 6.7 WNW 33 46 18 25 998.5 998.4 0.0
12/12:30pm 14.8 6.6 0.6 38 6.1 WNW 33 54 18 29 998.5 998.4 0.0
12/12:00pm 15.2 6.9 -0.1 35 6.6 WNW 33 54 18 29 998.6 998.5 0.0
12/11:55am 15.3 6.9 -1.3 32 6.9 WNW 33 54 18 29 998.6 998.5 0.0

Other formats

Comma delimited format used in spreadsheet applications
http://www.bom.gov.au/fwo/IDT60801/IDT60801.95966.axf

JavaScript Object Notation format (JSON) in row-major order
http://www.bom.gov.au/fwo/IDT60801/IDT60801.95966.json

Data quality

Most of these data are generated automatically and are frequently updated. Quality checks on data are not normally performed. It is possible for incorrect values to appear. Refer to information at About Latest Weather Observations and please check the disclaimer before using these data.